Time;durP1;ratioP1;P1;durP2;ratioP2;P2;SDS_P1;SDS_P2;PMS_P1;PMS_P2;Temp;Humidity;BMP_temperature;BMP_pressure;BME280_temperature;BME280_humidity;BME280_pressure;Samples;Min_cycle;Max_cycle;Signal;HPM_P1;HPM_P2
2021/07/30 00:03:31;;;;;;;13.43;7.05;;;;;;;12.75;79.37;100978.66;10457276;28;20516;-64
2021/07/30 00:08:39;;;;;;;10.75;6.80;;;;;;;12.77;80.36;100982.84;10458600;28;20059;-65
2021/07/30 00:13:41;;;;;;;14.35;6.47;;;;;;;12.64;79.14;100980.19;10456994;28;20417;-65
2021/07/30 00:18:44;;;;;;;10.13;7.22;;;;;;;12.57;79.65;100978.84;10458024;28;20540;-66
2021/07/30 00:23:46;;;;;;;11.60;7.35;;;;;;;12.59;79.00;100981.38;10457832;28;20052;-65
2021/07/30 00:28:49;;;;;;;9.95;7.00;;;;;;;12.62;79.06;100978.56;10457483;28;20049;-65
2021/07/30 00:33:51;;;;;;;13.57;7.80;;;;;;;12.49;78.76;100973.28;10457519;28;20056;-67
2021/07/30 00:38:53;;;;;;;9.85;7.03;;;;;;;12.43;80.29;100982.34;10457076;28;20060;-65
2021/07/30 00:43:56;;;;;;;10.50;6.82;;;;;;;13.07;75.21;100973.94;10457171;28;20052;-67
2021/07/30 00:48:58;;;;;;;8.07;7.15;;;;;;;12.64;78.73;100974.94;10456978;28;20045;-66
2021/07/30 00:54:00;;;;;;;12.70;7.10;;;;;;;12.67;77.96;100967.78;10455454;28;20049;-67
2021/07/30 00:59:05;;;;;;;14.68;7.57;;;;;;;12.69;78.55;100969.34;10456557;28;20115;-67
2021/07/30 01:04:07;;;;;;;15.77;7.85;;;;;;;12.60;79.62;100969.97;10455397;28;20052;-65
2021/07/30 01:09:10;;;;;;;11.38;6.57;;;;;;;12.67;78.35;100967.78;10456984;28;20049;-68
2021/07/30 01:14:12;;;;;;;10.00;6.75;;;;;;;12.73;78.07;100975.28;10455252;28;20056;-67
2021/07/30 01:19:22;;;;;;;12.75;6.80;;;;;;;12.59;78.18;100968.25;10456822;28;20053;-64
2021/07/30 01:24:26;;;;;;;11.00;7.65;;;;;;;12.64;78.46;100966.19;10456126;28;20055;-68
2021/07/30 01:29:29;;;;;;;14.18;6.93;;;;;;;12.45;80.01;100961.25;10455737;28;20049;-66
2021/07/30 01:34:31;;;;;;;15.18;6.53;;;;;;;12.90;76.62;100966.31;10455849;28;20556;-65
2021/07/30 01:39:34;;;;;;;14.90;7.18;;;;;;;12.68;77.82;100959.81;10456014;28;20056;-66
2021/07/30 01:44:36;;;;;;;10.32;6.38;;;;;;;12.81;78.47;100955.47;10455652;28;20048;-67
2021/07/30 01:49:38;;;;;;;13.95;7.00;;;;;;;12.54;78.81;100958.06;10457863;28;20059;-67
2021/07/30 01:54:41;;;;;;;13.18;6.95;;;;;;;12.39;80.05;100954.63;10463813;28;20052;-65
2021/07/30 01:59:43;;;;;;;12.32;7.13;;;;;;;12.42;79.19;100951.81;10463338;28;20053;-65
2021/07/30 02:04:46;;;;;;;12.18;6.80;;;;;;;12.62;79.06;100950.53;10463297;28;20099;-66
2021/07/30 02:09:48;;;;;;;12.15;7.35;;;;;;;12.37;80.17;100943.38;10463344;28;20044;-67
2021/07/30 02:14:50;;;;;;;10.88;6.95;;;;;;;12.41;79.83;100946.66;10463002;28;20049;-67
2021/07/30 02:19:52;;;;;;;10.45;7.03;;;;;;;12.61;77.79;100946.22;10461771;28;20045;-68
2021/07/30 02:24:55;;;;;;;10.77;6.55;;;;;;;12.71;77.39;100935.97;10462340;28;20408;-65
2021/07/30 02:29:57;;;;;;;10.35;6.38;;;;;;;12.66;76.70;100935.44;10462287;28;20068;-65
2021/07/30 02:34:59;;;;;;;15.30;8.15;;;;;;;13.06;74.79;100932.81;10462388;28;20049;-65
2021/07/30 02:40:02;;;;;;;9.77;6.22;;;;;;;13.22;74.40;100937.94;10460754;28;20057;-65
2021/07/30 02:45:05;;;;;;;12.88;5.95;;;;;;;13.32;73.05;100939.03;10461643;28;20045;-66
2021/07/30 02:50:09;;;;;;;14.40;6.10;;;;;;;13.39;73.12;100934.19;10461388;28;20051;-64
2021/07/30 02:55:11;;;;;;;20.95;6.78;;;;;;;13.21;74.70;100941.47;10461334;28;20064;-66
2021/07/30 03:00:14;;;;;;;11.13;5.93;;;;;;;13.34;74.01;100928.41;10460770;28;20057;-67
2021/07/30 03:05:16;;;;;;;11.65;6.50;;;;;;;13.19;76.31;100917.91;10460893;28;20053;-65
2021/07/30 03:10:19;;;;;;;19.55;6.32;;;;;;;13.17;75.12;100906.66;10460452;28;20400;-65
2021/07/30 03:15:21;;;;;;;13.30;5.65;;;;;;;12.95;77.17;100914.31;10460518;28;20056;-68
2021/07/30 03:20:23;;;;;;;11.82;6.75;;;;;;;12.88;77.92;100908.59;10460024;28;20490;-66
2021/07/30 03:25:25;;;;;;;9.85;6.13;;;;;;;13.10;75.68;100907.19;10460024;28;20052;-65
2021/07/30 03:30:28;;;;;;;9.30;5.82;;;;;;;12.76;78.79;100904.13;10460054;28;20393;-66
2021/07/30 03:35:30;;;;;;;10.88;6.10;;;;;;;12.49;79.42;100893.63;10459991;28;20056;-67
2021/07/30 03:40:33;;;;;;;15.10;6.95;;;;;;;12.65;79.92;100886.44;10459149;28;20053;-64
2021/07/30 03:45:35;;;;;;;10.23;6.20;;;;;;;12.69;79.71;100893.19;10459315;28;20045;-65
2021/07/30 03:50:38;;;;;;;11.55;6.70;;;;;;;12.51;80.18;100882.09;10459228;28;20049;-66
2021/07/30 03:55:40;;;;;;;12.70;6.95;;;;;;;12.57;79.68;100886.09;10459369;28;20051;-66
2021/07/30 04:00:42;;;;;;;12.13;7.88;;;;;;;12.89;79.10;100894.50;10458974;28;20059;-65
2021/07/30 04:05:45;;;;;;;13.98;6.65;;;;;;;12.70;80.62;100894.88;10458499;28;20083;-65
2021/07/30 04:10:47;;;;;;;13.88;6.85;;;;;;;12.58;81.33;100893.88;10457879;28;20488;-67
2021/07/30 04:15:50;;;;;;;10.20;6.22;;;;;;;12.77;79.80;100885.63;10457663;28;20378;-66
2021/07/30 04:20:52;;;;;;;13.32;6.90;;;;;;;12.69;82.15;100876.59;10458382;28;20075;-65
2021/07/30 04:25:54;;;;;;;19.05;7.25;;;;;;;12.73;81.50;100880.72;10457397;28;20056;-64
2021/07/30 04:30:57;;;;;;;10.73;7.20;;;;;;;12.75;81.39;100884.06;10457603;28;20052;-66
2021/07/30 04:35:59;;;;;;;16.77;7.40;;;;;;;12.57;81.30;100884.31;10457578;28;20052;-65
2021/07/30 04:41:05;;;;;;;9.73;7.28;;;;;;;12.58;82.11;100880.75;10455822;28;20053;-66
2021/07/30 04:46:17;;;;;;;14.90;7.03;;;;;;;12.89;81.71;100885.78;10456245;28;20049;-66
2021/07/30 04:51:20;;;;;;;11.40;6.38;;;;;;;13.15;81.59;100878.81;10455666;28;20041;-65
2021/07/30 04:56:22;;;;;;;12.05;6.38;;;;;;;13.49;80.09;100858.97;10456643;28;20067;-65
2021/07/30 05:01:25;;;;;;;13.90;7.30;;;;;;;13.58;79.69;100860.13;10456519;28;20049;-66
2021/07/30 05:06:28;;;;;;;11.25;7.82;;;;;;;13.54;80.72;100853.41;10457060;28;20132;-66
2021/07/30 05:11:30;;;;;;;14.18;6.07;;;;;;;13.65;80.06;100856.16;10456551;28;20060;-66
2021/07/30 05:16:33;;;;;;;15.02;8.05;;;;;;;13.54;80.52;100856.88;10456420;28;20049;-67
2021/07/30 05:21:35;;;;;;;9.88;6.82;;;;;;;13.73;80.27;100855.59;10456322;28;20535;-65
2021/07/30 05:26:37;;;;;;;12.68;7.70;;;;;;;13.72;81.41;100853.94;10463703;28;20049;-67
2021/07/30 05:31:40;;;;;;;15.48;7.68;;;;;;;14.03;80.43;100846.50;10465044;28;20049;-65
2021/07/30 05:36:42;;;;;;;18.67;6.80;;;;;;;14.28;80.50;100859.59;10464285;28;20045;-65
2021/07/30 05:41:44;;;;;;;13.82;7.57;;;;;;;14.39;79.81;100847.44;10464636;28;20056;-67
2021/07/30 05:46:47;;;;;;;13.27;7.68;;;;;;;14.70;78.27;100853.97;10463662;28;20055;-67
2021/07/30 05:51:49;;;;;;;21.90;9.73;;;;;;;14.89;77.46;100842.06;10463691;28;20571;-65
2021/07/30 05:56:56;;;;;;;13.82;8.60;;;;;;;14.99;75.32;100843.88;10463434;28;20049;-67
2021/07/30 06:01:58;;;;;;;15.60;8.45;;;;;;;15.10;74.67;100839.63;10463517;28;20057;-67
2021/07/30 06:07:01;;;;;;;11.93;9.25;;;;;;;15.27;74.82;100839.16;10463210;28;20492;-65
2021/07/30 06:12:04;;;;;;;18.58;9.52;;;;;;;15.24;75.78;100837.59;10462864;28;20052;-65
2021/07/30 06:17:06;;;;;;;15.65;8.88;;;;;;;15.55;75.77;100834.38;10462453;28;20407;-64
2021/07/30 06:22:08;;;;;;;19.15;9.80;;;;;;;15.65;76.42;100831.88;10462923;28;20049;-65
2021/07/30 06:27:11;;;;;;;16.40;9.90;;;;;;;15.80;73.05;100830.69;10462840;28;20056;-67
2021/07/30 06:32:13;;;;;;;15.63;10.13;;;;;;;16.04;73.37;100827.91;10462375;28;20045;-66
2021/07/30 06:37:16;;;;;;;19.27;9.43;;;;;;;16.16;73.06;100813.72;10461123;28;20044;-66
2021/07/30 06:42:18;;;;;;;11.60;8.70;;;;;;;16.34;73.82;100823.78;10461574;28;20497;-66
2021/07/30 06:47:23;;;;;;;15.73;9.25;;;;;;;16.46;72.93;100814.84;10461466;28;20049;-66
2021/07/30 06:52:25;;;;;;;14.52;8.95;;;;;;;16.74;73.17;100811.72;10461363;28;20060;-67
2021/07/30 06:57:27;;;;;;;15.10;8.25;;;;;;;16.93;72.27;100822.47;10461113;28;20060;-68
2021/07/30 07:02:30;;;;;;;15.35;8.05;;;;;;;17.08;69.70;100807.13;10460919;28;20382;-68
2021/07/30 07:07:33;;;;;;;14.15;8.00;;;;;;;17.06;70.11;100820.47;10460878;28;20124;-66
2021/07/30 07:12:37;;;;;;;9.80;6.43;;;;;;;17.22;70.31;100811.22;10460744;28;20087;-67
2021/07/30 07:17:40;;;;;;;12.73;6.43;;;;;;;17.37;69.88;100801.16;10460148;28;20404;-66
2021/07/30 07:22:42;;;;;;;9.65;6.72;;;;;;;17.61;69.25;100800.81;10460427;28;20044;-66
2021/07/30 07:27:44;;;;;;;13.95;7.28;;;;;;;17.67;68.76;100795.00;10459865;28;20060;-68
2021/07/30 07:32:47;;;;;;;13.73;6.72;;;;;;;17.86;70.16;100796.84;10459988;28;20047;-68
2021/07/30 07:37:49;;;;;;;16.88;8.13;;;;;;;17.88;69.10;100788.81;10459364;28;20507;-66
2021/07/30 07:42:52;;;;;;;18.80;8.73;;;;;;;18.02;68.50;100793.69;10459954;28;20412;-68
2021/07/30 07:47:55;;;;;;;13.10;7.78;;;;;;;18.40;67.41;100794.72;10458181;28;20053;-66
2021/07/30 07:52:57;;;;;;;12.63;8.35;;;;;;;18.58;67.67;100781.63;10459047;28;20432;-64
2021/07/30 07:57:59;;;;;;;10.00;6.88;;;;;;;18.80;65.85;100777.00;10458538;28;20051;-66
2021/07/30 08:03:02;;;;;;;10.27;6.97;;;;;;;18.74;65.70;100773.06;10458613;28;20049;-63
2021/07/30 08:08:04;;;;;;;13.73;6.32;;;;;;;19.33;63.42;100757.03;10458184;28;20420;-63
2021/07/30 08:13:07;;;;;;;16.60;6.75;;;;;;;19.64;61.13;100762.91;10458165;28;20406;-65
2021/07/30 08:18:09;;;;;;;13.02;6.28;;;;;;;19.75;62.74;100770.69;10457995;28;20051;-65
2021/07/30 08:23:11;;;;;;;10.07;5.18;;;;;;;21.10;60.96;100768.91;10456932;28;20045;-63
2021/07/30 08:28:14;;;;;;;6.50;4.85;;;;;;;21.12;60.12;100761.59;10457418;28;20041;-65
2021/07/30 08:33:16;;;;;;;20.25;4.82;;;;;;;20.37;58.06;100757.53;10457358;28;20045;-64
2021/07/30 08:38:19;;;;;;;11.88;4.25;;;;;;;20.66;59.47;100759.16;10456915;28;20060;-64
2021/07/30 08:43:21;;;;;;;7.47;3.42;;;;;;;20.67;58.63;100746.66;10457324;28;20049;-65
2021/07/30 08:48:23;;;;;;;8.75;3.80;;;;;;;21.91;58.96;100748.13;10456958;28;20049;-63
2021/07/30 08:53:27;;;;;;;12.40;5.35;;;;;;;20.89;57.25;100740.00;10455803;28;20481;-65
2021/07/30 08:58:29;;;;;;;11.98;3.85;;;;;;;21.67;55.90;100739.03;10456635;28;20079;-66
2021/07/30 09:03:37;;;;;;;10.70;3.33;;;;;;;22.13;56.55;100736.81;10456605;28;20398;-66
2021/07/30 09:08:40;;;;;;;5.15;3.40;;;;;;;22.13;56.26;100731.47;10456534;28;20049;-65
2021/07/30 09:13:42;;;;;;;6.13;2.95;;;;;;;22.02;58.06;100735.31;10456459;28;20056;-64
2021/07/30 09:18:46;;;;;;;9.23;4.20;;;;;;;21.82;53.59;100723.25;10456230;28;20084;-66
2021/07/30 09:23:54;;;;;;;5.28;3.03;;;;;;;22.35;57.53;100719.34;10456455;28;20041;-65
2021/07/30 09:28:58;;;;;;;5.40;3.55;;;;;;;22.29;54.90;100712.00;10456196;28;20045;-64
2021/07/30 09:34:15;;;;;;;3.20;2.75;;;;;;;22.51;56.74;100709.66;10456206;28;20156;-67
2021/07/30 09:39:34;;;;;;;5.43;2.95;;;;;;;22.93;57.81;100697.91;10456087;28;20401;-65
2021/07/30 09:44:49;;;;;;;9.13;3.35;;;;;;;22.93;53.92;100692.56;10455749;28;20049;-65
2021/07/30 09:50:05;;;;;;;4.22;3.58;;;;;;;22.50;52.10;100692.00;10455928;28;20053;-65
2021/07/30 09:55:11;;;;;;;7.72;3.17;;;;;;;23.61;51.46;100679.63;10455674;28;20059;-65
2021/07/30 10:00:15;;;;;;;4.40;3.33;;;;;;;23.50;51.82;100671.00;10456063;28;20055;-66
2021/07/30 10:05:20;;;;;;;8.80;2.80;;;;;;;22.69;53.51;100670.28;10455609;28;20056;-65
2021/07/30 10:10:27;;;;;;;5.30;3.25;;;;;;;23.67;52.70;100657.50;10456940;28;20080;-66
2021/07/30 10:15:30;;;;;;;10.18;3.17;;;;;;;23.15;54.00;100653.66;10463759;28;20077;-67
2021/07/30 10:20:33;;;;;;;8.02;3.95;;;;;;;23.19;52.65;100655.78;10461561;28;20056;-65
2021/07/30 10:25:37;;;;;;;3.58;2.60;;;;;;;23.88;54.90;100641.69;10462887;28;20045;-68
2021/07/30 10:31:02;;;;;;;5.90;3.53;;;;;;;23.40;52.49;100646.31;10462546;28;20056;-66
2021/07/30 10:36:12;;;;;;;5.32;2.33;;;;;;;25.85;50.52;100635.06;10462683;28;20057;-67
2021/07/30 10:41:15;;;;;;;3.35;2.88;;;;;;;25.31;49.62;100625.66;10461996;28;20057;-68
2021/07/30 10:46:18;;;;;;;5.35;1.83;;;;;;;26.58;49.18;100622.22;10460292;28;20133;-66
2021/07/30 10:51:21;;;;;;;6.15;3.08;;;;;;;25.70;48.06;100603.78;10461588;28;20041;-66
2021/07/30 10:56:23;;;;;;;5.00;2.20;;;;;;;26.18;45.20;100607.72;10461168;28;20060;-66
2021/07/30 11:01:29;;;;;;;7.72;2.78;;;;;;;26.05;46.75;100601.22;10461103;28;20053;-66
2021/07/30 11:06:50;;;;;;;4.40;2.05;;;;;;;26.75;45.29;100593.22;10460898;28;20045;-68
2021/07/30 11:11:55;;;;;;;3.38;1.75;;;;;;;25.49;49.17;100593.09;10460912;28;20048;-65
2021/07/30 11:16:59;;;;;;;4.13;2.33;;;;;;;24.33;50.88;100582.97;10459289;28;20053;-65
2021/07/30 11:22:26;;;;;;;3.72;2.33;;;;;;;24.65;54.32;100587.13;10460677;28;20049;-66
2021/07/30 11:27:28;;;;;;;5.43;2.22;;;;;;;26.27;49.22;100577.84;10460188;28;20045;-67
2021/07/30 11:32:32;;;;;;;4.80;2.13;;;;;;;26.16;46.39;100577.56;10459803;28;20045;-67
2021/07/30 11:37:34;;;;;;;4.20;2.40;;;;;;;25.35;47.40;100567.97;10459639;28;20048;-66
2021/07/30 11:42:39;;;;;;;4.10;2.00;;;;;;;26.80;44.90;100552.34;10459578;28;20056;-66
2021/07/30 11:47:43;;;;;;;13.10;2.88;;;;;;;25.20;49.38;100552.78;10459217;28;20045;-66
2021/07/30 11:52:45;;;;;;;6.78;2.55;;;;;;;27.06;47.28;100551.59;10459473;28;20439;-67
2021/07/30 11:57:55;;;;;;;3.70;2.40;;;;;;;27.97;43.08;100543.03;10457877;28;20048;-67
2021/07/30 12:03:14;;;;;;;11.93;2.65;;;;;;;26.16;45.52;100543.53;10457904;28;20056;-66
2021/07/30 12:08:18;;;;;;;3.08;2.20;;;;;;;27.85;44.93;100530.41;10457273;28;20127;-65
2021/07/30 12:13:23;;;;;;;3.17;2.13;;;;;;;26.69;44.59;100522.34;10459134;28;20072;-67
2021/07/30 12:18:25;;;;;;;3.65;2.65;;;;;;;25.39;49.50;100529.91;10457821;28;20057;-65
2021/07/30 12:23:33;;;;;;;4.07;2.50;;;;;;;24.76;49.44;100526.09;10458086;28;20083;-67
2021/07/30 12:28:42;;;;;;;4.47;2.55;;;;;;;24.77;51.32;100520.56;10456744;28;20114;-65
2021/07/30 12:33:45;;;;;;;4.93;2.75;;;;;;;26.31;46.78;100504.00;10457199;28;20045;-66
2021/07/30 12:39:01;;;;;;;3.95;2.05;;;;;;;25.78;49.78;100507.13;10457360;28;20065;-64
2021/07/30 12:44:17;;;;;;;6.88;2.80;;;;;;;25.12;50.55;100511.91;10457389;28;20041;-65
2021/07/30 12:49:31;;;;;;;2.20;1.90;;;;;;;24.44;50.31;100502.25;10456999;28;20045;-66
2021/07/30 12:54:35;;;;;;;7.35;3.05;;;;;;;23.97;54.26;100497.25;10457110;28;20112;-66
2021/07/30 12:59:53;;;;;;;5.30;2.97;;;;;;;23.41;56.32;100505.59;10456410;28;20049;-65
2021/07/30 13:04:56;;;;;;;4.60;3.05;;;;;;;23.68;54.40;100490.81;10456887;28;20049;-64
2021/07/30 13:09:58;;;;;;;5.68;3.00;;;;;;;25.63;50.11;100487.63;10456328;28;20489;-65
2021/07/30 13:15:01;;;;;;;2.72;2.38;;;;;;;27.02;48.54;100465.22;10456466;28;20474;-65
2021/07/30 13:20:05;;;;;;;2.83;2.50;;;;;;;25.28;49.99;100468.78;10456457;28;20049;-65
2021/07/30 13:25:07;;;;;;;3.30;3.08;;;;;;;24.46;51.14;100465.41;10456208;28;20511;-66
2021/07/30 13:30:10;;;;;;;4.82;3.00;;;;;;;25.37;49.17;100440.84;10456141;28;20072;-64
2021/07/30 13:35:12;;;;;;;3.72;2.33;;;;;;;24.84;52.55;100434.97;10456173;28;20052;-67
2021/07/30 13:40:15;;;;;;;4.35;2.30;;;;;;;24.41;53.18;100438.41;10456377;28;20244;-66
2021/07/30 13:45:18;;;;;;;18.33;3.47;;;;;;;24.51;54.40;100437.25;10458036;28;20392;-64
2021/07/30 13:50:20;;;;;;;3.10;2.33;;;;;;;24.34;54.85;100440.16;10463692;28;20048;-66
2021/07/30 13:55:22;;;;;;;4.50;2.60;;;;;;;24.04;52.20;100442.88;10464065;28;20075;-64
2021/07/30 14:00:25;;;;;;;4.53;2.67;;;;;;;23.85;51.73;100427.38;10463275;28;20053;-65
2021/07/30 14:05:27;;;;;;;2.58;2.28;;;;;;;23.51;51.81;100432.19;10463331;28;20048;-65
2021/07/30 14:10:29;;;;;;;5.22;2.60;;;;;;;24.46;50.61;100429.78;10462897;28;20052;-67
2021/07/30 14:15:32;;;;;;;4.97;2.30;;;;;;;26.58;47.60;100415.53;10462917;28;20056;-67
2021/07/30 14:20:35;;;;;;;5.55;2.70;;;;;;;27.61;47.02;100417.06;10462591;28;20410;-66
2021/07/30 14:25:37;;;;;;;2.72;2.40;;;;;;;27.02;44.23;100406.09;10462863;28;20056;-65
2021/07/30 14:30:40;;;;;;;6.15;2.40;;;;;;;26.09;47.82;100405.84;10462388;28;20080;-67
2021/07/30 14:35:44;;;;;;;4.53;2.20;;;;;;;25.16;50.71;100406.00;10462074;28;20497;-66
2021/07/30 14:40:46;;;;;;;4.85;2.55;;;;;;;24.44;49.66;100405.91;10461814;28;20405;-66
2021/07/30 14:45:48;;;;;;;2.90;2.33;;;;;;;24.13;52.50;100414.19;10461642;28;20049;-66
2021/07/30 14:50:51;;;;;;;8.52;2.53;;;;;;;23.95;52.43;100411.06;10461517;28;20049;-66
2021/07/30 14:55:53;;;;;;;4.38;2.33;;;;;;;24.66;51.50;100408.63;10461024;28;20045;-66
2021/07/30 15:00:56;;;;;;;2.75;2.40;;;;;;;24.50;52.30;100404.31;10461346;28;20056;-65
2021/07/30 15:05:58;;;;;;;3.35;2.60;;;;;;;25.43;50.87;100415.13;10461103;28;20052;-68
2021/07/30 15:11:00;;;;;;;4.78;2.30;;;;;;;24.37;53.18;100434.41;10459733;28;20053;-68
2021/07/30 15:16:04;;;;;;;6.05;2.92;;;;;;;23.90;54.52;100446.34;10460601;28;20068;-65
2021/07/30 15:21:12;;;;;;;6.97;3.33;;;;;;;22.85;58.57;100434.53;10460594;28;20079;-68
2021/07/30 15:26:16;;;;;;;4.95;3.60;;;;;;;22.76;59.52;100435.59;10460648;28;20049;-67
2021/07/30 15:31:18;;;;;;;4.82;3.28;;;;;;;23.13;58.32;100432.22;10460597;28;20045;-66
2021/07/30 15:36:21;;;;;;;4.15;3.75;;;;;;;23.29;57.45;100422.41;10459898;28;20049;-65
2021/07/30 15:41:24;;;;;;;3.92;3.45;;;;;;;24.88;52.80;100416.69;10459536;28;20068;-67
2021/07/30 15:46:26;;;;;;;4.57;3.05;;;;;;;25.91;50.36;100395.63;10459476;28;20049;-66
2021/07/30 15:51:29;;;;;;;4.78;2.60;;;;;;;24.46;52.72;100401.22;10459113;28;20520;-65
2021/07/30 15:56:31;;;;;;;3.33;2.47;;;;;;;25.19;53.34;100397.59;10458847;28;20405;-67
2021/07/30 16:01:33;;;;;;;2.50;2.17;;;;;;;24.10;54.62;100406.53;10458998;28;20103;-68
2021/07/30 16:06:36;;;;;;;2.95;2.63;;;;;;;24.99;52.55;100411.63;10458302;28;20049;-66
2021/07/30 16:11:38;;;;;;;2.95;2.70;;;;;;;24.84;53.06;100392.97;10457738;28;20057;-67
2021/07/30 16:16:41;;;;;;;4.28;2.83;;;;;;;23.82;55.73;100395.66;10458308;28;20067;-66
2021/07/30 16:21:43;;;;;;;3.90;2.63;;;;;;;23.84;55.69;100386.47;10458727;28;20048;-68
2021/07/30 16:26:45;;;;;;;5.35;2.13;;;;;;;23.98;55.12;100373.25;10456615;28;20053;-67
2021/07/30 16:31:48;;;;;;;5.85;2.40;;;;;;;23.40;55.09;100373.84;10457938;28;20042;-65
2021/07/30 16:36:50;;;;;;;2.70;2.10;;;;;;;22.89;57.48;100379.78;10456761;28;20049;-66
2021/07/30 16:41:52;;;;;;;2.58;2.38;;;;;;;22.16;59.75;100424.53;10457121;28;20056;-67
2021/07/30 16:46:55;;;;;;;9.27;3.65;;;;;;;19.43;74.66;100509.13;10456890;28;20052;-63
2021/07/30 16:51:57;;;;;;;6.80;2.40;;;;;;;19.15;77.00;100465.91;10457160;28;20049;-63
2021/07/30 16:56:59;;;;;;;3.92;2.55;;;;;;;18.53;76.91;100458.59;10456751;28;20409;-63
2021/07/30 17:02:02;;;;;;;5.60;2.20;;;;;;;18.67;77.55;100462.56;10456865;28;20488;-65
2021/07/30 17:07:04;;;;;;;2.42;2.05;;;;;;;18.52;78.36;100450.81;10456640;28;20049;-64
2021/07/30 17:12:07;;;;;;;5.15;2.58;;;;;;;18.07;79.11;100447.13;10456939;28;20056;-65
2021/07/30 17:17:09;;;;;;;3.47;2.90;;;;;;;18.18;82.34;100436.31;10456397;28;20048;-65
2021/07/30 17:22:11;;;;;;;2.97;2.55;;;;;;;18.84;78.58;100436.25;10464072;28;20049;-64
2021/07/30 17:27:13;;;;;;;3.67;3.05;;;;;;;18.63;79.79;100436.53;10464730;28;20071;-63
2021/07/30 17:32:16;;;;;;;3.53;3.20;;;;;;;18.68;81.46;100434.25;10464517;28;20524;-64
2021/07/30 17:37:18;;;;;;;4.38;3.05;;;;;;;19.19;80.42;100423.97;10464357;28;20400;-64
2021/07/30 17:42:20;;;;;;;5.45;3.60;;;;;;;19.38;79.80;100436.22;10464530;28;20057;-65
2021/07/30 17:47:23;;;;;;;4.15;3.78;;;;;;;19.04;79.30;100444.91;10463821;28;20416;-64
2021/07/30 17:52:25;;;;;;;10.23;4.47;;;;;;;18.94;80.71;100442.31;10463886;28;20459;-64
2021/07/30 17:57:29;;;;;;;4.93;3.65;;;;;;;19.19;79.10;100443.38;10463815;28;20051;-65
2021/07/30 18:02:32;;;;;;;4.88;4.38;;;;;;;19.15;79.53;100443.84;10463266;28;20513;-64
2021/07/30 18:07:35;;;;;;;6.03;4.53;;;;;;;18.68;82.68;100451.00;10463193;28;20053;-64
2021/07/30 18:12:38;;;;;;;9.65;6.22;;;;;;;18.47;83.93;100451.25;10463586;28;20041;-65
2021/07/30 18:17:40;;;;;;;6.03;5.53;;;;;;;18.87;80.33;100457.19;10463051;28;20144;-65
2021/07/30 18:22:43;;;;;;;6.38;5.30;;;;;;;18.43;81.85;100449.06;10462970;28;20053;-66
2021/07/30 18:27:45;;;;;;;7.72;5.72;;;;;;;18.38;82.66;100445.00;10462485;28;20051;-67
2021/07/30 18:32:47;;;;;;;7.60;5.88;;;;;;;18.39;81.23;100448.50;10461311;28;20516;-66
2021/07/30 18:37:50;;;;;;;9.93;5.85;;;;;;;18.09;83.49;100463.69;10462093;28;20045;-65
2021/07/30 18:42:52;;;;;;;7.20;5.85;;;;;;;18.22;82.32;100467.81;10462120;28;20052;-65
2021/07/30 18:47:55;;;;;;;7.38;5.70;;;;;;;18.11;82.88;100472.34;10461758;28;20075;-67
2021/07/30 18:52:57;;;;;;;5.60;4.13;;;;;;;17.85;79.86;100468.63;10461715;28;20045;-66
2021/07/30 18:58:00;;;;;;;6.65;3.47;;;;;;;17.64;80.16;100464.34;10461212;28;20481;-65
2021/07/30 19:03:02;;;;;;;5.57;2.72;;;;;;;17.46;79.20;100465.03;10461421;28;20079;-65
2021/07/30 19:08:04;;;;;;;6.38;2.03;;;;;;;17.42;78.36;100471.59;10461387;28;20063;-67
2021/07/30 19:13:07;;;;;;;5.38;2.40;;;;;;;16.67;79.70;100465.94;10461030;28;20049;-65
2021/07/30 19:18:10;;;;;;;2.80;1.83;;;;;;;17.27;77.65;100455.31;10460630;28;20045;-65
2021/07/30 19:23:13;;;;;;;3.33;1.83;;;;;;;16.88;77.02;100476.47;10460914;28;20049;-65
2021/07/30 19:28:17;;;;;;;6.28;2.30;;;;;;;16.91;78.88;100477.97;10460212;28;20052;-67
2021/07/30 19:33:19;;;;;;;4.10;1.98;;;;;;;16.42;81.76;100479.63;10459874;28;20503;-64
2021/07/30 19:38:22;;;;;;;7.28;2.60;;;;;;;16.37;82.35;100482.69;10458169;28;20045;-65
2021/07/30 19:43:24;;;;;;;5.78;1.70;;;;;;;16.48;82.11;100489.69;10458996;28;20056;-65
2021/07/30 19:48:26;;;;;;;3.33;2.10;;;;;;;16.00;83.93;100490.28;10459614;28;20056;-65
2021/07/30 19:53:29;;;;;;;4.47;2.10;;;;;;;15.84;84.09;100503.97;10457990;28;20489;-65
2021/07/30 19:58:31;;;;;;;6.82;2.70;;;;;;;16.11;83.29;100533.31;10457535;28;20056;-65
2021/07/30 20:03:33;;;;;;;3.30;1.45;;;;;;;16.26;76.33;100544.38;10457636;28;20501;-66
2021/07/30 20:08:40;;;;;;;7.78;1.83;;;;;;;16.24;76.01;100538.38;10458478;28;20481;-64
2021/07/30 20:13:48;;;;;;;1.23;1.00;;;;;;;16.35;74.63;100530.34;10457437;28;20045;-66
2021/07/30 20:18:51;;;;;;;1.67;1.20;;;;;;;16.28;78.40;100526.56;10458102;28;20485;-64
2021/07/30 20:23:54;;;;;;;5.80;1.30;;;;;;;15.97;78.38;100526.56;10458351;28;20056;-66
2021/07/30 20:28:57;;;;;;;4.53;1.33;;;;;;;15.98;81.95;100515.00;10457702;28;20429;-64
2021/07/30 20:33:59;;;;;;;1.60;0.90;;;;;;;16.26;78.16;100506.56;10458114;28;20049;-66
2021/07/30 20:39:01;;;;;;;5.93;1.30;;;;;;;15.78;81.99;100516.72;10457302;28;20404;-64
2021/07/30 20:44:04;;;;;;;2.63;0.90;;;;;;;15.87;79.19;100496.63;10457508;28;20064;-64
2021/07/30 20:49:07;;;;;;;1.42;1.05;;;;;;;15.76;78.02;100494.88;10456969;28;20060;-65
2021/07/30 20:54:10;;;;;;;1.48;0.90;;;;;;;15.83;77.98;100487.28;10456674;28;20045;-66
2021/07/30 20:59:13;;;;;;;4.85;1.27;;;;;;;15.75;77.94;100481.78;10456849;28;20049;-65
2021/07/30 21:04:15;;;;;;;3.63;1.10;;;;;;;16.03;75.59;100476.84;10456931;28;20048;-66
2021/07/30 21:09:18;;;;;;;3.72;1.40;;;;;;;15.69;77.46;100483.13;10456575;28;20052;-66
2021/07/30 21:14:20;;;;;;;1.52;1.00;;;;;;;16.04;76.28;100482.00;10456499;28;20041;-64
2021/07/30 21:19:22;;;;;;;2.17;1.05;;;;;;;15.72;74.54;100476.78;10457194;28;20053;-64
2021/07/30 21:24:25;;;;;;;5.38;1.70;;;;;;;15.28;80.25;100481.28;10456463;28;20050;-64
2021/07/30 21:29:27;;;;;;;4.97;1.67;;;;;;;15.37;78.44;100477.91;10456272;28;20045;-66
2021/07/30 21:34:29;;;;;;;10.30;1.75;;;;;;;15.63;76.08;100475.72;10456655;28;20056;-65
2021/07/30 21:39:32;;;;;;;4.57;1.58;;;;;;;15.68;77.25;100472.72;10455912;28;20061;-66
2021/07/30 21:44:34;;;;;;;8.48;2.38;;;;;;;15.29;79.69;100462.72;10456465;28;20049;-66
2021/07/30 21:49:36;;;;;;;4.82;1.35;;;;;;;15.52;78.45;100459.97;10455581;28;20056;-66
2021/07/30 21:54:39;;;;;;;3.30;1.50;;;;;;;15.49;77.31;100473.41;10455489;28;20393;-67
2021/07/30 21:59:41;;;;;;;3.13;1.40;;;;;;;15.36;77.85;100458.59;10455398;28;20041;-66
2021/07/30 22:04:43;;;;;;;5.30;1.27;;;;;;;15.79;73.92;100456.84;10455570;28;20128;-66
2021/07/30 22:09:45;;;;;;;6.32;1.60;;;;;;;15.66;76.12;100449.09;10462729;28;20045;-65
2021/07/30 22:14:48;;;;;;;3.10;1.48;;;;;;;15.32;76.54;100436.09;10463084;28;20404;-64
2021/07/30 22:19:50;;;;;;;3.42;1.40;;;;;;;15.74;72.97;100437.88;10462774;28;20489;-65
2021/07/30 22:24:53;;;;;;;9.52;1.83;;;;;;;15.67;72.71;100431.44;10462812;28;20045;-64
2021/07/30 22:29:56;;;;;;;3.58;1.40;;;;;;;15.67;76.26;100427.00;10462419;28;20518;-66
2021/07/30 22:34:58;;;;;;;6.20;2.17;;;;;;;15.76;73.20;100433.34;10462476;28;20055;-66
2021/07/30 22:40:23;;;;;;;5.20;1.50;;;;;;;15.75;72.81;100431.63;10462129;28;20060;-64
2021/07/30 22:45:26;;;;;;;4.97;1.80;;;;;;;15.69;72.63;100422.44;10460753;28;20045;-66
2021/07/30 22:50:28;;;;;;;8.15;2.05;;;;;;;15.52;74.34;100423.88;10461453;28;20477;-65
2021/07/30 22:55:32;;;;;;;5.25;2.20;;;;;;;15.24;74.49;100431.44;10462065;28;20049;-64
2021/07/30 23:00:35;;;;;;;5.28;1.70;;;;;;;15.30;76.66;100416.06;10461205;28;20060;-64
2021/07/30 23:05:37;;;;;;;7.53;1.95;;;;;;;15.49;75.67;100420.66;10461218;28;20057;-65
2021/07/30 23:10:40;;;;;;;6.05;2.10;;;;;;;15.25;77.70;100416.47;10460959;28;20078;-63